Time;durP1;ratioP1;P1;durP2;ratioP2;P2;SDS_P1;SDS_P2;PMS_P1;PMS_P2;Temp;Humidity;BMP_temperature;BMP_pressure;BME280_temperature;BME280_humidity;BME280_pressure;Samples;Min_cycle;Max_cycle;Signal;HPM_P1;HPM_P2
2021/09/29 00:02:16;;;;;;;2.80;1.80;;;;;;;13.67;nan;100724.59;5050568;28;20033;-74
2021/09/29 00:04:41;;;;;;;2.63;1.90;;;;;;;13.66;nan;100726.44;5050668;28;20060;-74
2021/09/29 00:07:06;;;;;;;2.88;1.95;;;;;;;13.69;nan;100725.28;5068826;28;20044;-74
2021/09/29 00:09:32;;;;;;;3.25;1.83;;;;;;;13.65;nan;100730.06;5051115;28;20025;-74
2021/09/29 00:11:57;;;;;;;2.47;1.80;;;;;;;13.70;nan;100725.09;5068804;28;20033;-73
2021/09/29 00:14:22;;;;;;;2.83;1.75;;;;;;;13.77;nan;100727.91;5068570;28;20024;-74
2021/09/29 00:16:48;;;;;;;3.78;1.95;;;;;;;13.81;nan;100713.28;5068093;28;20497;-74
2021/09/29 00:19:13;;;;;;;3.38;2.22;;;;;;;13.85;nan;100716.44;5068753;28;20032;-74
2021/09/29 00:21:39;;;;;;;2.03;1.52;;;;;;;13.87;nan;100714.44;5069484;28;20036;-74
2021/09/29 00:24:04;;;;;;;2.08;1.63;;;;;;;13.87;nan;100711.78;5067988;28;20043;-74
2021/09/29 00:26:30;;;;;;;2.45;1.70;;;;;;;13.84;nan;100718.25;5068462;28;20033;-74
2021/09/29 00:28:55;;;;;;;2.47;1.60;;;;;;;13.86;nan;100713.59;5051564;28;20036;-73
2021/09/29 00:31:34;;;;;;;3.03;1.83;;;;;;;13.85;nan;100711.09;5068430;28;20120;-74
2021/09/29 00:36:38;;;;;;;2.97;2.00;;;;;;;13.78;nan;100706.50;5067507;28;20032;-74
2021/09/29 00:39:04;;;;;;;2.90;1.70;;;;;;;13.77;nan;100712.78;5050876;28;20037;-73
2021/09/29 00:41:30;;;;;;;2.83;2.03;;;;;;;13.72;nan;100715.13;5076155;28;20032;-74
2021/09/29 00:43:56;;;;;;;2.58;1.92;;;;;;;13.69;nan;100709.31;5050717;28;20090;-74
2021/09/29 00:46:22;;;;;;;2.72;2.13;;;;;;;13.67;nan;100713.97;5049811;28;20033;-74
2021/09/29 00:48:47;;;;;;;3.78;2.00;;;;;;;13.68;nan;100713.81;5071189;28;20063;-73
2021/09/29 00:51:13;;;;;;;2.72;2.15;;;;;;;13.68;nan;100702.34;5052670;28;20367;-73
2021/09/29 00:53:38;;;;;;;3.55;2.10;;;;;;;13.68;nan;100705.00;5077926;28;20046;-74
2021/09/29 00:56:05;;;;;;;2.60;1.60;;;;;;;13.72;nan;100701.84;5049346;28;20043;-74
2021/09/29 00:58:30;;;;;;;3.58;2.15;;;;;;;13.69;nan;100706.66;5049730;28;20036;-74
2021/09/29 01:00:56;;;;;;;2.67;1.90;;;;;;;13.69;nan;100696.84;5050161;28;20037;-74
2021/09/29 01:03:22;;;;;;;2.80;2.13;;;;;;;13.70;nan;100710.97;5068560;28;20025;-73
2021/09/29 01:05:51;;;;;;;2.50;2.00;;;;;;;13.71;nan;100702.03;5067913;28;20474;-74
2021/09/29 01:08:22;;;;;;;2.60;1.70;;;;;;;13.78;nan;100706.50;5049195;28;20056;-74
2021/09/29 01:11:03;;;;;;;3.63;1.88;;;;;;;13.78;nan;100701.16;5068197;28;20033;-74
2021/09/29 01:13:50;;;;;;;2.92;1.63;;;;;;;13.79;nan;100702.81;5068788;28;20330;-74
2021/09/29 01:16:17;;;;;;;2.78;1.90;;;;;;;13.80;nan;100703.66;5067563;28;20040;-74
2021/09/29 01:18:50;;;;;;;2.60;2.10;;;;;;;13.74;nan;100702.50;5050121;28;20119;-74
2021/09/29 01:21:16;;;;;;;3.03;2.10;;;;;;;13.74;nan;100697.19;5068807;28;20230;-74
2021/09/29 01:23:59;;;;;;;3.15;2.50;;;;;;;13.73;nan;100703.50;5068566;28;20527;-73
2021/09/29 01:26:30;;;;;;;2.95;2.35;;;;;;;13.70;nan;100703.81;5067453;28;20036;-74
2021/09/29 01:29:19;;;;;;;3.50;2.15;;;;;;;13.72;nan;100704.50;5068815;28;20044;-74
2021/09/29 01:31:46;;;;;;;2.75;2.38;;;;;;;13.76;nan;100697.84;5050102;28;20028;-74
2021/09/29 01:34:14;;;;;;;2.45;1.85;;;;;;;13.80;nan;100701.84;5067101;28;20507;-74
2021/09/29 01:36:42;;;;;;;3.13;2.72;;;;;;;13.79;nan;100697.50;5067579;28;20028;-74
2021/09/29 01:39:09;;;;;;;5.40;3.28;;;;;;;13.78;nan;100701.16;5068372;28;20028;-74
2021/09/29 01:41:37;;;;;;;3.03;2.30;;;;;;;13.81;nan;100703.47;5066542;28;20166;-74
2021/09/29 01:44:02;;;;;;;3.38;2.70;;;;;;;13.80;nan;100693.88;5049491;28;20028;-74
2021/09/29 01:46:29;;;;;;;4.13;2.67;;;;;;;13.85;nan;100690.69;5067210;28;20402;-74
2021/09/29 01:49:06;;;;;;;3.60;2.65;;;;;;;13.87;nan;100680.72;5067495;28;20508;-74
2021/09/29 01:51:36;;;;;;;4.18;2.75;;;;;;;13.87;nan;100682.53;5050460;28;20044;-74
2021/09/29 01:54:03;;;;;;;4.22;3.10;;;;;;;13.88;nan;100694.84;5046580;28;20036;-74
2021/09/29 01:56:29;;;;;;;4.43;3.20;;;;;;;13.83;nan;100689.22;5070136;28;20417;-74
2021/09/29 01:58:54;;;;;;;3.60;2.88;;;;;;;13.81;nan;100681.41;5053576;28;20040;-74
2021/09/29 02:01:20;;;;;;;4.18;3.10;;;;;;;13.84;nan;100682.88;5071413;28;20043;-74
2021/09/29 02:03:46;;;;;;;3.90;2.63;;;;;;;13.87;nan;100683.38;5071054;28;20028;-74
2021/09/29 02:06:12;;;;;;;6.63;3.47;;;;;;;13.79;nan;100684.22;5070971;28;20120;-74
2021/09/29 02:08:38;;;;;;;5.40;3.70;;;;;;;13.75;nan;100690.03;5071829;28;20453;-75
2021/09/29 02:11:04;;;;;;;5.93;3.70;;;;;;;13.76;nan;100692.53;5071748;28;20063;-75
2021/09/29 02:13:30;;;;;;;3.38;2.60;;;;;;;13.80;nan;100679.75;5072086;28;20058;-74
2021/09/29 02:15:55;;;;;;;4.55;3.05;;;;;;;13.83;nan;100683.91;5071270;28;20113;-74
2021/09/29 02:18:21;;;;;;;5.47;3.90;;;;;;;13.78;nan;100681.75;5072050;28;20040;-75
2021/09/29 02:20:46;;;;;;;5.88;3.80;;;;;;;13.83;nan;100674.09;5055091;28;20028;-75
2021/09/29 02:23:11;;;;;;;5.30;3.60;;;;;;;13.84;nan;100674.91;5073440;28;20060;-75
2021/09/29 02:25:37;;;;;;;5.80;3.65;;;;;;;13.90;nan;100680.38;5071036;28;20028;-75
2021/09/29 02:28:02;;;;;;;4.38;3.50;;;;;;;13.90;nan;100677.72;5053693;28;20435;-75
2021/09/29 02:30:27;;;;;;;5.25;3.65;;;;;;;13.91;nan;100679.38;5071074;28;20566;-74
2021/09/29 02:32:53;;;;;;;5.68;3.47;;;;;;;13.97;nan;100688.53;5053560;28;20450;-74
2021/09/29 02:35:18;;;;;;;4.93;3.30;;;;;;;13.96;nan;100682.34;5071569;28;20044;-75
2021/09/29 02:37:44;;;;;;;6.72;3.20;;;;;;;13.97;nan;100685.84;5071364;28;20077;-75
2021/09/29 02:40:09;;;;;;;5.28;4.00;;;;;;;13.93;nan;100692.50;5070369;28;20039;-75
2021/09/29 02:42:35;;;;;;;6.15;3.72;;;;;;;13.96;nan;100697.47;5071516;28;20062;-75
2021/09/29 02:45:01;;;;;;;5.50;3.80;;;;;;;13.89;nan;100696.50;5066899;28;20097;-75
2021/09/29 02:47:27;;;;;;;6.97;4.03;;;;;;;13.83;nan;100702.50;5072878;28;20074;-75
2021/09/29 02:49:52;;;;;;;5.28;3.65;;;;;;;13.90;nan;100700.81;5071735;28;20424;-74
2021/09/29 02:52:18;;;;;;;3.97;2.95;;;;;;;13.90;nan;100698.16;5070595;28;20039;-75
2021/09/29 02:54:43;;;;;;;4.68;3.25;;;;;;;13.91;nan;100705.94;5071144;28;20493;-75
2021/09/29 02:57:08;;;;;;;5.97;3.95;;;;;;;13.88;nan;100700.16;5071100;28;20036;-74
2021/09/29 02:59:34;;;;;;;4.78;3.28;;;;;;;13.80;nan;100703.66;5070549;28;20162;-74
2021/09/29 03:01:59;;;;;;;5.90;3.40;;;;;;;13.77;nan;100714.63;5071140;28;20039;-74
2021/09/29 03:04:24;;;;;;;4.57;3.20;;;;;;;13.75;nan;100711.28;5070826;28;20041;-74
2021/09/29 03:06:50;;;;;;;4.90;3.28;;;;;;;13.68;nan;100710.31;5072605;28;20036;-74
2021/09/29 03:09:15;;;;;;;5.82;3.70;;;;;;;13.63;nan;100712.63;5071338;28;20040;-74
2021/09/29 03:11:41;;;;;;;6.20;3.33;;;;;;;13.70;nan;100718.94;5052886;28;20521;-74
2021/09/29 03:14:06;;;;;;;5.47;3.42;;;;;;;13.68;nan;100713.81;5069685;28;20485;-74
2021/09/29 03:16:31;;;;;;;4.35;3.30;;;;;;;13.64;nan;100714.31;5070133;28;20043;-74
2021/09/29 03:18:57;;;;;;;6.72;3.97;;;;;;;13.60;nan;100713.81;5072110;28;20107;-74
2021/09/29 03:21:22;;;;;;;7.03;4.13;;;;;;;13.60;nan;100716.47;5070623;28;20041;-75
2021/09/29 03:23:48;;;;;;;5.10;3.95;;;;;;;13.62;nan;100726.94;5070251;28;20035;-74
2021/09/29 03:26:13;;;;;;;7.32;3.58;;;;;;;13.51;nan;100723.59;5051715;28;20040;-75
2021/09/29 03:28:39;;;;;;;6.32;3.97;;;;;;;13.59;nan;100717.47;5070465;28;20044;-74
2021/09/29 03:31:04;;;;;;;6.97;4.00;;;;;;;13.67;nan;100720.09;5070323;28;20097;-74
2021/09/29 03:33:29;;;;;;;6.70;4.65;;;;;;;13.66;nan;100725.59;5069990;28;20123;-74
2021/09/29 03:35:55;;;;;;;8.75;4.63;;;;;;;13.65;nan;100724.75;5068744;28;20043;-74
2021/09/29 03:38:20;;;;;;;7.05;5.07;;;;;;;13.67;nan;100728.06;5069536;28;20047;-74
2021/09/29 03:40:45;;;;;;;7.45;4.30;;;;;;;13.62;nan;100724.28;5070241;28;20123;-74
2021/09/29 03:43:11;;;;;;;8.63;4.95;;;;;;;13.59;nan;100728.91;5052336;28;20028;-74
2021/09/29 03:45:36;;;;;;;7.10;4.50;;;;;;;13.50;nan;100734.41;5069641;28;20028;-74
2021/09/29 03:48:02;;;;;;;6.63;4.93;;;;;;;13.49;nan;100736.22;5069758;28;20039;-74
2021/09/29 03:50:28;;;;;;;7.88;5.05;;;;;;;13.53;nan;100729.56;5051723;28;20033;-74
2021/09/29 03:52:54;;;;;;;8.48;5.05;;;;;;;13.51;nan;100731.56;5069827;28;20055;-74
2021/09/29 03:55:20;;;;;;;8.93;4.90;;;;;;;13.43;nan;100742.19;5070488;28;20045;-74
2021/09/29 03:57:45;;;;;;;8.02;5.43;;;;;;;13.44;nan;100745.69;5068187;28;20069;-74
2021/09/29 04:00:12;;;;;;;9.07;5.03;;;;;;;13.42;nan;100750.31;5068815;28;20099;-74
2021/09/29 04:02:39;;;;;;;7.70;4.95;;;;;;;13.40;nan;100749.69;5069540;28;20199;-74
2021/09/29 04:05:06;;;;;;;8.63;5.95;;;;;;;13.41;nan;100746.84;5069231;28;20141;-74
2021/09/29 04:07:32;;;;;;;8.93;6.20;;;;;;;13.44;nan;100756.31;5070841;28;20032;-74
2021/09/29 04:09:57;;;;;;;11.63;5.80;;;;;;;13.34;nan;100761.78;5070870;28;20037;-74
2021/09/29 04:12:23;;;;;;;10.38;6.25;;;;;;;13.36;nan;100759.78;5069561;28;20044;-74
2021/09/29 04:14:49;;;;;;;7.68;5.55;;;;;;;13.23;nan;100760.25;5070299;28;20044;-74
2021/09/29 04:17:14;;;;;;;9.68;5.80;;;;;;;13.17;nan;100760.88;5050595;28;20109;-74
2021/09/29 04:19:39;;;;;;;11.07;6.15;;;;;;;13.06;nan;100764.69;5069767;28;20393;-74
2021/09/29 04:22:10;;;;;;;10.88;6.43;;;;;;;13.11;nan;100756.25;5052160;28;20040;-74
2021/09/29 04:24:39;;;;;;;9.53;5.93;;;;;;;13.03;nan;100769.47;5069848;28;20442;-74
2021/09/29 04:27:06;;;;;;;10.68;6.60;;;;;;;12.97;nan;100760.34;5051403;28;20279;-75
2021/09/29 04:29:32;;;;;;;12.02;6.80;;;;;;;13.01;nan;100758.19;5070403;28;20028;-74
2021/09/29 04:31:57;;;;;;;10.82;5.95;;;;;;;12.92;nan;100752.03;5070641;28;20131;-74
2021/09/29 04:34:22;;;;;;;9.43;6.45;;;;;;;12.91;nan;100758.31;5051350;28;20040;-74
2021/09/29 04:36:48;;;;;;;11.90;6.03;;;;;;;12.87;nan;100757.84;5069577;28;20032;-74
2021/09/29 04:39:14;;;;;;;8.90;6.03;;;;;;;12.81;nan;100768.25;5066844;28;20629;-74
2021/09/29 04:41:40;;;;;;;8.95;5.97;;;;;;;12.77;nan;100762.44;5069257;28;20225;-74
2021/09/29 04:44:06;;;;;;;9.30;6.07;;;;;;;12.78;nan;100764.09;5049880;28;20037;-74
2021/09/29 04:46:31;;;;;;;9.13;6.13;;;;;;;12.72;nan;100768.22;5068430;28;20082;-74
2021/09/29 04:48:56;;;;;;;10.38;5.93;;;;;;;12.73;nan;100764.59;5068939;28;20567;-74
2021/09/29 04:51:22;;;;;;;11.93;6.13;;;;;;;12.75;nan;100767.06;5050626;28;20036;-74
2021/09/29 04:53:47;;;;;;;7.75;5.95;;;;;;;12.70;nan;100764.06;5068793;28;20028;-73
2021/09/29 04:56:14;;;;;;;11.23;6.95;;;;;;;12.71;nan;100771.03;5049547;28;20120;-74
2021/09/29 04:58:39;;;;;;;8.45;5.20;;;;;;;12.66;nan;100760.09;5070035;28;20032;-74
2021/09/29 05:01:05;;;;;;;8.60;5.75;;;;;;;12.63;nan;100763.88;5070095;28;20040;-74
2021/09/29 05:03:33;;;;;;;9.52;6.05;;;;;;;12.72;nan;100768.22;5069791;28;20037;-74
2021/09/29 05:05:58;;;;;;;8.35;6.10;;;;;;;12.67;nan;100757.25;5069297;28;20493;-74
2021/09/29 05:08:25;;;;;;;10.50;6.35;;;;;;;12.66;nan;100762.72;5068548;28;20051;-74
2021/09/29 05:10:58;;;;;;;9.25;5.85;;;;;;;12.65;nan;100769.84;5069064;28;20378;-73
2021/09/29 05:13:26;;;;;;;9.57;6.00;;;;;;;12.70;nan;100764.91;5069334;28;20044;-74
2021/09/29 05:15:52;;;;;;;7.93;5.50;;;;;;;12.72;nan;100754.13;5068121;28;20075;-74
2021/09/29 05:18:18;;;;;;;7.75;5.53;;;;;;;12.74;nan;100763.56;5067595;28;20035;-74
2021/09/29 05:20:43;;;;;;;8.57;5.63;;;;;;;12.81;nan;100760.28;5053211;28;20036;-74
2021/09/29 05:23:08;;;;;;;8.52;5.47;;;;;;;12.82;nan;100759.28;5069307;28;20090;-74
2021/09/29 05:25:34;;;;;;;8.60;5.70;;;;;;;12.80;nan;100762.13;5068776;28;20039;-74
2021/09/29 05:28:01;;;;;;;8.43;5.78;;;;;;;12.83;nan;100769.75;5053215;28;20036;-74
2021/09/29 05:30:26;;;;;;;10.48;5.60;;;;;;;12.89;nan;100774.41;5070922;28;20109;-74
2021/09/29 05:32:51;;;;;;;7.43;5.47;;;;;;;12.98;nan;100772.63;5073429;28;20326;-73
2021/09/29 05:35:17;;;;;;;10.07;6.03;;;;;;;12.95;nan;100764.97;5073200;28;20070;-74
2021/09/29 05:37:42;;;;;;;9.80;5.47;;;;;;;12.98;nan;100775.28;5073122;28;20453;-74
2021/09/29 05:40:08;;;;;;;10.35;6.10;;;;;;;13.01;nan;100772.28;5066023;28;20032;-73
2021/09/29 05:42:33;;;;;;;8.40;5.40;;;;;;;13.11;nan;100774.81;5055119;28;20516;-74
2021/09/29 05:44:59;;;;;;;10.20;5.40;;;;;;;13.05;nan;100772.81;5072673;28;20041;-74
2021/09/29 05:47:24;;;;;;;8.57;5.10;;;;;;;13.06;nan;100780.63;5072639;28;20029;-74
2021/09/29 05:49:49;;;;;;;10.40;5.47;;;;;;;13.12;nan;100777.31;5079719;28;20036;-73
2021/09/29 05:52:15;;;;;;;8.70;5.25;;;;;;;13.18;nan;100781.97;5071216;28;20032;-74
2021/09/29 05:54:40;;;;;;;7.90;5.05;;;;;;;13.25;nan;100784.81;5071405;28;20036;-74
2021/09/29 05:57:06;;;;;;;6.78;4.75;;;;;;;13.23;nan;100784.16;5073079;28;20084;-74
2021/09/29 05:59:31;;;;;;;9.32;5.38;;;;;;;13.27;nan;100776.66;5071955;28;20033;-74
2021/09/29 06:01:56;;;;;;;7.93;4.88;;;;;;;13.22;nan;100774.50;5070953;28;20032;-74
2021/09/29 06:04:22;;;;;;;8.23;4.57;;;;;;;13.13;nan;100778.97;5052796;28;20036;-74
2021/09/29 06:06:47;;;;;;;7.57;4.60;;;;;;;13.18;nan;100786.47;5070844;28;20036;-74
2021/09/29 06:09:13;;;;;;;8.38;4.88;;;;;;;13.20;nan;100787.09;5054277;28;20158;-74
2021/09/29 06:11:38;;;;;;;7.82;4.78;;;;;;;13.25;nan;100781.31;5072373;28;20127;-75
2021/09/29 06:14:04;;;;;;;7.57;4.75;;;;;;;13.30;nan;100784.34;5072307;28;20062;-76
2021/09/29 06:16:35;;;;;;;8.15;5.00;;;;;;;13.32;nan;100785.00;5054267;28;20174;-76
2021/09/29 06:19:00;;;;;;;7.97;5.13;;;;;;;13.23;nan;100786.81;5072071;28;20060;-77
2021/09/29 06:21:26;;;;;;;9.80;5.30;;;;;;;13.19;nan;100780.16;5071958;28;20052;-75
2021/09/29 06:23:51;;;;;;;6.55;4.88;;;;;;;13.29;nan;100785.34;5072394;28;20035;-76
2021/09/29 06:26:17;;;;;;;7.57;4.90;;;;;;;13.24;nan;100775.16;5071411;28;20036;-76
2021/09/29 06:28:42;;;;;;;8.18;5.32;;;;;;;13.31;nan;100781.53;5072287;28;20090;-76
2021/09/29 06:31:08;;;;;;;7.22;4.63;;;;;;;13.35;nan;100790.84;5072211;28;20485;-76
2021/09/29 06:33:34;;;;;;;8.82;4.43;;;;;;;13.83;nan;100787.56;5071703;28;20040;-76
2021/09/29 06:36:00;;;;;;;8.68;4.10;;;;;;;14.55;nan;100780.47;5054422;28;20513;-76
2021/09/29 06:38:25;;;;;;;5.25;3.58;;;;;;;14.80;nan;100783.88;5073642;28;20053;-76
2021/09/29 06:40:51;;;;;;;6.57;3.65;;;;;;;15.20;nan;100786.50;5054128;28;20036;-76
2021/09/29 06:43:17;;;;;;;6.60;3.40;;;;;;;15.96;nan;100789.28;5053857;28;20051;-76
2021/09/29 06:45:43;;;;;;;8.45;3.22;;;;;;;16.13;nan;100788.13;5071948;28;20040;-76
2021/09/29 06:48:10;;;;;;;6.35;3.33;;;;;;;16.61;nan;100785.94;5071549;28;20518;-76
2021/09/29 06:50:36;;;;;;;6.88;3.30;;;;;;;16.77;nan;100783.06;5072364;28;20036;-76
2021/09/29 06:53:02;;;;;;;4.63;3.28;;;;;;;17.05;nan;100793.09;5066910;28;20483;-76
2021/09/29 06:55:27;;;;;;;6.60;3.55;;;;;;;16.92;nan;100790.25;5071603;28;20033;-77
2021/09/29 06:57:53;;;;;;;6.38;3.42;;;;;;;16.22;nan;100789.69;5072163;28;20024;-76
2021/09/29 07:00:19;;;;;;;5.63;3.50;;;;;;;15.97;nan;100797.13;5071280;28;20033;-76
2021/09/29 07:02:46;;;;;;;6.13;3.67;;;;;;;15.70;nan;100787.84;5072154;28;20493;-76
2021/09/29 07:05:13;;;;;;;6.80;3.72;;;;;;;15.58;nan;100791.91;5071625;28;20043;-77
2021/09/29 07:07:38;;;;;;;9.27;4.32;;;;;;;15.44;nan;100788.16;5053721;28;20094;-76
2021/09/29 07:10:05;;;;;;;10.93;4.47;;;;;;;15.23;nan;100783.47;5071770;28;20029;-76
2021/09/29 07:12:30;;;;;;;5.97;3.90;;;;;;;15.16;nan;100780.69;5072288;28;20116;-76
2021/09/29 07:14:55;;;;;;;7.85;3.53;;;;;;;15.11;nan;100793.72;5053110;28;20071;-77
2021/09/29 07:17:24;;;;;;;8.23;4.30;;;;;;;15.09;nan;100793.06;5071945;28;20032;-76
2021/09/29 07:19:53;;;;;;;7.07;3.83;;;;;;;15.02;nan;100792.91;5052923;28;20416;-76
2021/09/29 07:22:18;;;;;;;7.45;3.80;;;;;;;15.11;nan;100795.53;5079059;28;20445;-75
2021/09/29 07:24:43;;;;;;;5.45;3.75;;;;;;;14.95;nan;100785.81;5071015;28;20036;-75
2021/09/29 07:27:09;;;;;;;5.85;3.88;;;;;;;14.98;nan;100788.13;5053547;28;20039;-75
2021/09/29 07:29:34;;;;;;;5.30;3.70;;;;;;;14.97;nan;100787.28;5071372;28;20033;-75
2021/09/29 07:31:59;;;;;;;5.53;3.95;;;;;;;14.96;nan;100787.44;5072244;28;20032;-75
2021/09/29 07:34:25;;;;;;;5.47;3.63;;;;;;;15.05;nan;100786.41;5055048;28;20040;-75
2021/09/29 07:36:50;;;;;;;6.75;3.78;;;;;;;15.17;nan;100784.19;5072919;28;20036;-75
2021/09/29 07:39:16;;;;;;;7.53;3.67;;;;;;;15.26;nan;100789.28;5054355;28;20040;-75
2021/09/29 07:41:41;;;;;;;5.85;3.30;;;;;;;15.60;nan;100774.72;5071623;28;20028;-75
2021/09/29 07:44:09;;;;;;;7.05;3.65;;;;;;;16.40;nan;100786.69;5053301;28;20493;-75
2021/09/29 07:46:35;;;;;;;5.30;3.08;;;;;;;16.89;nan;100796.81;5053319;28;20033;-75
2021/09/29 07:49:00;;;;;;;5.15;3.10;;;;;;;17.53;nan;100782.72;5052990;28;20055;-75
2021/09/29 07:51:28;;;;;;;6.50;3.28;;;;;;;17.76;nan;100785.19;5052531;28;20143;-75
2021/09/29 07:53:53;;;;;;;4.93;2.72;;;;;;;18.23;nan;100786.41;5072098;28;20044;-75
2021/09/29 07:56:18;;;;;;;7.97;2.97;;;;;;;18.70;nan;100781.31;5076125;28;20033;-75
2021/09/29 07:58:43;;;;;;;4.25;2.55;;;;;;;19.12;nan;100781.31;5070479;28;20035;-75
2021/09/29 08:01:09;;;;;;;4.93;2.85;;;;;;;19.46;nan;100781.16;5071247;28;20043;-75
2021/09/29 08:03:34;;;;;;;5.15;2.50;;;;;;;20.14;nan;100791.75;5052794;28;20400;-75
2021/09/29 08:06:03;;;;;;;5.38;2.40;;;;;;;20.28;nan;100797.91;5069251;28;20060;-75
2021/09/29 08:08:28;;;;;;;4.05;2.20;;;;;;;20.89;nan;100791.34;5069981;28;20041;-75
2021/09/29 08:10:54;;;;;;;3.83;1.90;;;;;;;20.97;nan;100791.13;5070587;28;20025;-75
2021/09/29 08:13:19;;;;;;;4.30;2.30;;;;;;;21.49;nan;100782.97;5052313;28;20091;-75
2021/09/29 08:15:45;;;;;;;4.63;2.20;;;;;;;21.45;nan;100779.06;5051854;28;20452;-75
2021/09/29 08:18:10;;;;;;;3.13;1.88;;;;;;;21.84;nan;100772.56;5063711;28;20033;-75
2021/09/29 08:20:37;;;;;;;5.53;2.30;;;;;;;22.32;nan;100775.69;5070703;28;20035;-75
2021/09/29 08:23:17;;;;;;;4.75;2.00;;;;;;;21.89;nan;100784.56;5071062;28;20029;-75
2021/09/29 08:36:31;;;;;;;7.03;2.28;;;;;;;18.68;nan;100767.28;5069805;28;20029;-75
2021/09/29 08:39:04;;;;;;;4.80;1.90;;;;;;;18.08;nan;100766.13;5071078;28;20051;-76
2021/09/29 08:41:43;;;;;;;4.90;1.95;;;;;;;17.96;nan;100788.06;5070710;28;20055;-74
2021/09/29 08:44:27;;;;;;;6.28;2.10;;;;;;;17.67;nan;100786.34;5074896;28;20028;-77
2021/09/29 08:52:22;;;;;;;4.90;1.98;;;;;;;16.93;nan;100794.59;5069488;28;20055;-76
2021/09/29 09:16:58;;;;;;;4.15;1.95;;;;;;;16.49;nan;100796.28;5068658;28;20117;-76
2021/09/29 09:19:29;;;;;;;4.85;1.90;;;;;;;16.61;nan;100796.63;5069078;28;20119;-76
2021/09/29 09:22:00;;;;;;;6.18;2.15;;;;;;;16.69;nan;100798.38;5069639;28;20044;-76
2021/09/29 09:24:27;;;;;;;;;;;;;;;16.72;nan;100792.66;5068770;28;20040;-76
2021/09/29 09:27:03;;;;;;;4.35;1.70;;;;;;;16.59;nan;100793.31;5068590;28;19924;-76
2021/09/29 09:29:30;;;;;;;4.65;1.88;;;;;;;16.59;nan;100805.81;5069188;28;20041;-76
2021/09/29 09:32:07;;;;;;;3.13;1.80;;;;;;;16.68;nan;100791.38;5051062;28;20037;-75
2021/09/29 09:34:32;;;;;;;4.53;1.73;;;;;;;16.74;nan;100794.13;5068537;28;20032;-75
2021/09/29 09:36:57;;;;;;;4.60;2.00;;;;;;;16.90;nan;100787.78;5068658;28;20406;-75
2021/09/29 09:39:25;;;;;;;4.78;2.05;;;;;;;16.92;nan;100792.94;5068090;28;20037;-76
2021/09/29 09:41:58;;;;;;;4.32;1.70;;;;;;;16.87;nan;100790.00;5068822;28;20032;-75
2021/09/29 09:44:29;;;;;;;2.90;1.40;;;;;;;16.79;nan;100793.59;5062280;28;20106;-75
2021/09/29 09:47:04;;;;;;;5.43;2.00;;;;;;;16.91;nan;100791.28;5067570;28;20068;-75
2021/09/29 09:49:30;;;;;;;4.68;2.03;;;;;;;17.02;nan;100785.47;5068571;28;20319;-75
2021/09/29 09:52:00;;;;;;;6.20;2.20;;;;;;;16.95;nan;100785.38;5070363;28;20048;-75
2021/09/29 09:54:36;;;;;;;4.55;1.65;;;;;;;16.96;nan;100773.69;5068183;28;20053;-75
2021/09/29 09:57:02;;;;;;;3.70;1.65;;;;;;;16.87;nan;100769.44;5049836;28;20029;-75
2021/09/29 09:59:30;;;;;;;6.50;1.88;;;;;;;16.90;nan;100769.09;5063758;28;20035;-75
2021/09/29 10:01:57;;;;;;;3.92;1.75;;;;;;;16.86;nan;100772.31;5071862;28;20042;-75
2021/09/29 10:04:22;;;;;;;5.57;1.70;;;;;;;16.77;nan;100775.06;5049806;28;20452;-76
2021/09/29 10:06:48;;;;;;;3.90;1.60;;;;;;;16.75;nan;100776.25;5067238;28;20036;-75
2021/09/29 10:11:52;;;;;;;3.58;1.30;;;;;;;16.64;nan;100774.91;5067971;28;20562;-75
2021/09/29 10:23:08;;;;;;;4.00;1.15;;;;;;;16.87;nan;100748.09;5072019;28;20086;-75
2021/09/29 10:28:18;;;;;;;3.42;1.10;;;;;;;16.97;nan;100739.78;5071177;28;20554;-76
2021/09/29 10:31:17;;;;;;;3.22;1.20;;;;;;;17.13;nan;100742.22;5074082;28;20119;-76
2021/09/29 10:34:11;;;;;;;4.03;1.20;;;;;;;17.18;nan;100731.81;5070734;28;20036;-77
2021/09/29 10:42:39;;;;;;;3.67;0.90;;;;;;;17.11;nan;100722.91;5066079;28;20306;-76
2021/09/29 11:07:24;;;;;;;4.07;1.40;;;;;;;17.63;nan;100726.22;5051794;28;20093;-76
2021/09/29 11:29:22;;;;;;;3.03;0.90;;;;;;;17.90;nan;100723.78;5070858;28;20108;-76
2021/09/29 11:31:55;;;;;;;2.97;0.90;;;;;;;17.86;nan;100731.38;5071015;28;20033;-76
2021/09/29 11:34:30;;;;;;;3.40;0.98;;;;;;;17.86;nan;100722.53;5065615;28;20032;-76
2021/09/29 12:09:53;;;;;;;3.97;0.90;;;;;;;14.46;nan;100773.47;5084527;28;20066;-79
2021/09/29 12:12:31;;;;;;;4.40;1.00;;;;;;;14.48;nan;100782.13;5075557;28;20028;-79
2021/09/29 12:14:59;;;;;;;4.03;1.52;;;;;;;14.36;nan;100784.31;5075057;28;20025;-79
2021/09/29 12:17:27;;;;;;;4.68;1.50;;;;;;;14.31;nan;100764.56;5065843;28;20035;-81
2021/09/29 12:19:59;;;;;;;3.08;1.20;;;;;;;14.09;nan;100760.78;5074899;28;20028;-80
2021/09/29 12:22:28;;;;;;;3.05;1.02;;;;;;;14.03;nan;100759.59;5056627;28;20067;-80
2021/09/29 12:25:13;;;;;;;3.63;1.20;;;;;;;14.03;nan;100773.72;5074836;28;20025;-80
2021/09/29 12:28:11;;;;;;;4.78;1.02;;;;;;;14.24;nan;100745.78;5058543;28;20116;-79
2021/09/29 12:30:41;;;;;;;4.55;0.80;;;;;;;14.42;nan;100735.75;5079397;28;20041;-80
2021/09/29 12:33:14;;;;;;;3.40;1.05;;;;;;;14.56;nan;100726.25;5079287;28;20078;-80
2021/09/29 12:35:51;;;;;;;5.28;1.30;;;;;;;14.64;nan;100739.50;5079003;28;20032;-79
2021/09/29 12:38:18;;;;;;;2.97;1.20;;;;;;;14.74;nan;100749.13;5074889;28;20028;-79
2021/09/29 12:40:44;;;;;;;4.60;1.33;;;;;;;14.83;nan;100750.75;5074480;28;20062;-79
2021/09/29 12:43:17;;;;;;;3.63;1.25;;;;;;;14.68;nan;100752.47;5061889;28;20028;-79
2021/09/29 12:45:47;;;;;;;4.05;1.25;;;;;;;14.64;nan;100760.81;5081302;28;20032;-79
2021/09/29 12:48:14;;;;;;;4.50;0.98;;;;;;;14.49;nan;100764.31;5078179;28;20029;-79
2021/09/29 12:50:56;;;;;;;3.83;0.90;;;;;;;14.40;nan;100769.69;5071498;28;20028;-79
2021/09/29 12:56:02;;;;;;;1.45;0.73;;;;;;;14.14;nan;100774.41;5096083;28;20247;-79
2021/09/29 12:58:28;;;;;;;2.25;0.70;;;;;;;14.11;nan;100785.34;5095716;28;20035;-79
2021/09/29 13:00:54;;;;;;;1.17;0.60;;;;;;;13.96;nan;100779.88;5093964;28;20082;-79
2021/09/29 13:03:20;;;;;;;2.10;0.50;;;;;;;13.85;nan;100774.91;5075615;28;20050;-78
2021/09/29 13:05:47;;;;;;;1.25;0.68;;;;;;;13.74;nan;100789.38;5078536;28;20032;-77
2021/09/29 13:08:12;;;;;;;1.77;0.85;;;;;;;13.80;nan;100799.34;5078629;28;20416;-78
2021/09/29 13:10:37;;;;;;;1.90;0.75;;;;;;;13.72;nan;100800.16;5096016;28;20028;-78
2021/09/29 13:13:03;;;;;;;1.60;0.60;;;;;;;13.84;nan;100805.16;5094821;28;20074;-78
2021/09/29 13:15:30;;;;;;;1.48;0.75;;;;;;;13.82;nan;100805.31;5067444;28;20051;-78
2021/09/29 13:17:57;;;;;;;1.90;0.70;;;;;;;13.87;nan;100803.00;5072990;28;20035;-78
2021/09/29 13:20:29;;;;;;;4.40;1.00;;;;;;;13.93;nan;100807.63;5071123;28;20040;-78
2021/09/29 13:22:58;;;;;;;;;;;;;;;13.98;nan;100812.47;5071706;28;20029;-78
2021/09/29 13:36:33;;;;;;;2.38;0.95;;;;;;;14.06;nan;100827.56;5070662;28;20036;-78
2021/09/29 13:38:59;;;;;;;2.20;0.90;;;;;;;14.08;nan;100841.53;5070612;28;20492;-78
2021/09/29 13:41:24;;;;;;;0.95;0.60;;;;;;;14.02;nan;100840.38;5054415;28;20091;-77
2021/09/29 13:43:49;;;;;;;2.70;0.70;;;;;;;14.08;nan;100850.34;5069017;28;20082;-77
2021/09/29 13:46:15;;;;;;;1.02;0.50;;;;;;;14.06;nan;100856.81;5074397;28;20025;-78
2021/09/29 13:48:40;;;;;;;;;;;;;;;14.16;nan;100853.00;5073079;28;20033;-78
2021/09/29 13:51:06;;;;;;;1.40;0.60;;;;;;;14.18;nan;100856.34;5072395;28;19965;-78
2021/09/29 13:53:31;;;;;;;2.20;0.67;;;;;;;14.26;nan;100860.81;5074448;28;20847;-78
2021/09/29 13:55:59;;;;;;;1.80;0.60;;;;;;;14.28;nan;100865.94;5057525;28;20400;-79
2021/09/29 14:01:31;;;;;;;;;;;;;;;14.18;nan;100868.78;5078425;28;20040;-79
2021/09/29 14:31:15;;;;;;;1.95;0.60;;;;;;;14.76;nan;100891.69;5075289;28;20052;-79
2021/09/29 14:33:45;;;;;;;1.40;0.60;;;;;;;14.88;nan;100892.16;5074540;28;20044;-79
2021/09/29 14:36:11;;;;;;;2.55;0.77;;;;;;;15.00;nan;100896.13;5074018;28;20029;-79
2021/09/29 14:38:36;;;;;;;1.77;0.60;;;;;;;15.09;nan;100896.94;5056259;28;20115;-79
2021/09/29 14:41:02;;;;;;;1.45;0.60;;;;;;;15.13;nan;100894.75;5057489;28;20033;-78
2021/09/29 14:43:27;;;;;;;0.95;0.52;;;;;;;15.08;nan;100901.41;5074857;28;20405;-78